createdAt,value
2022-10-21T00:01:48.680Z,11.97
2022-10-21T00:04:15.228Z,12.20
2022-10-21T00:06:41.772Z,11.97
2022-10-21T00:09:08.349Z,11.97
2022-10-21T00:11:34.860Z,11.93
2022-10-21T00:14:01.412Z,12.07
2022-10-21T00:16:27.943Z,12.53
2022-10-21T00:18:54.476Z,11.47
2022-10-21T00:21:21.308Z,12.47
2022-10-21T00:23:47.980Z,12.37
2022-10-21T00:26:14.694Z,11.60
2022-10-21T00:28:41.323Z,12.27
2022-10-21T00:31:08.401Z,12.33
2022-10-21T00:33:35.020Z,12.80
2022-10-21T00:36:04.526Z,12.93
2022-10-21T00:38:31.257Z,13.40
2022-10-21T00:40:57.895Z,14.07
2022-10-21T00:43:24.634Z,13.33
2022-10-21T00:45:52.805Z,13.47
2022-10-21T00:48:21.905Z,12.57
2022-10-21T00:51:01.496Z,12.00
2022-10-21T00:53:28.006Z,12.83
2022-10-21T00:55:55.637Z,12.77
2022-10-21T00:58:22.745Z,13.10
2022-10-21T01:00:49.678Z,13.20
2022-10-21T01:03:16.179Z,12.93
2022-10-21T01:05:42.948Z,14.23
2022-10-21T01:08:09.470Z,13.60
2022-10-21T01:10:37.701Z,13.73
2022-10-21T01:13:04.156Z,12.87
2022-10-21T01:15:39.024Z,12.33
2022-10-21T01:18:25.743Z,12.63
2022-10-21T01:20:56.752Z,12.03
2022-10-21T01:23:41.966Z,12.77
2022-10-21T01:26:27.376Z,13.87
2022-10-21T01:28:58.532Z,13.80
2022-10-21T01:31:31.104Z,13.77
2022-10-21T01:34:03.598Z,13.27
2022-10-21T01:36:43.625Z,13.40
2022-10-21T01:39:17.732Z,13.23
2022-10-21T01:41:45.483Z,12.80
2022-10-21T01:44:24.069Z,13.73
2022-10-21T01:46:52.819Z,12.50
2022-10-21T01:49:22.159Z,13.23
2022-10-21T01:51:48.729Z,13.43
2022-10-21T01:54:23.676Z,14.23
2022-10-21T01:56:50.146Z,13.57
2022-10-21T01:59:16.737Z,13.10
2022-10-21T02:01:43.310Z,13.37
2022-10-21T02:04:09.880Z,12.70
2022-10-21T02:06:36.353Z,13.43
2022-10-21T02:09:02.984Z,12.50
2022-10-21T02:11:29.545Z,12.23
2022-10-21T02:14:01.583Z,12.63
2022-10-21T02:16:31.984Z,12.43
2022-10-21T02:18:58.823Z,13.70
2022-10-21T02:21:25.989Z,12.33
2022-10-21T02:23:53.867Z,14.07
2022-10-21T02:26:23.617Z,13.03
2022-10-21T02:28:50.118Z,12.00
2022-10-21T02:31:19.315Z,13.87
2022-10-21T02:33:45.844Z,11.83
2022-10-21T02:36:14.034Z,13.07
2022-10-21T02:38:49.988Z,11.67
2022-10-21T02:41:18.098Z,12.93
2022-10-21T02:43:44.673Z,13.03
2022-10-21T02:46:12.022Z,13.23
2022-10-21T02:48:38.920Z,12.77
2022-10-21T02:51:05.779Z,12.53
2022-10-21T02:53:32.361Z,13.40
2022-10-21T02:55:58.851Z,13.67
2022-10-21T02:58:25.435Z,14.00
2022-10-21T03:00:52.012Z,14.03
2022-10-21T03:03:18.505Z,13.03
2022-10-21T03:05:45.140Z,13.93
2022-10-21T03:08:11.622Z,14.00
2022-10-21T03:10:38.109Z,14.53
2022-10-21T03:13:04.568Z,13.67
2022-10-21T03:15:31.128Z,14.50
2022-10-21T03:17:57.599Z,14.00
2022-10-21T03:20:24.153Z,12.00
2022-10-21T03:22:50.582Z,13.60
2022-10-21T03:25:17.102Z,14.43
2022-10-21T03:27:43.644Z,14.17
2022-10-21T03:30:10.433Z,13.53
2022-10-21T03:32:37.166Z,14.07
2022-10-21T03:35:03.861Z,13.23
2022-10-21T03:37:30.519Z,12.90
2022-10-21T03:39:57.040Z,13.13
2022-10-21T03:42:23.553Z,12.97
2022-10-21T03:44:50.090Z,13.77
2022-10-21T03:47:16.747Z,14.20
2022-10-21T03:49:43.226Z,14.10
2022-10-21T03:52:09.726Z,14.33
2022-10-21T03:54:36.182Z,12.43
2022-10-21T03:57:02.693Z,13.53
2022-10-21T03:59:29.203Z,13.70
2022-10-21T04:01:55.819Z,13.70
2022-10-21T04:04:22.386Z,12.70
2022-10-21T04:06:48.906Z,13.77
2022-10-21T04:09:15.508Z,14.37
2022-10-21T04:11:42.086Z,15.57
2022-10-21T04:14:11.599Z,15.50
2022-10-21T04:16:41.201Z,16.07
2022-10-21T04:19:07.732Z,14.30
2022-10-21T04:21:34.287Z,15.37
2022-10-21T04:24:00.753Z,13.97
2022-10-21T04:26:27.312Z,14.83
2022-10-21T04:28:53.794Z,14.50
2022-10-21T04:31:20.303Z,14.60
2022-10-21T04:33:46.793Z,16.03
2022-10-21T04:36:13.323Z,15.60
2022-10-21T04:38:39.826Z,17.07
2022-10-21T04:41:06.336Z,15.97
2022-10-21T04:43:32.850Z,17.30
2022-10-21T04:45:59.437Z,17.97
2022-10-21T04:48:25.972Z,17.07
2022-10-21T04:50:52.577Z,18.73
2022-10-21T04:53:19.126Z,17.60
2022-10-21T04:55:45.670Z,16.23
2022-10-21T04:58:12.198Z,18.27
2022-10-21T05:00:38.761Z,18.03
2022-10-21T05:03:05.290Z,18.10
2022-10-21T05:05:32.032Z,17.80
2022-10-21T05:07:58.691Z,17.80
2022-10-21T05:10:25.737Z,17.23
2022-10-21T05:12:53.200Z,16.43
2022-10-21T05:15:19.944Z,16.67
2022-10-21T05:17:46.642Z,17.90
2022-10-21T05:20:13.205Z,17.97
2022-10-21T05:22:40.202Z,17.47
2022-10-21T05:25:07.128Z,20.20
2022-10-21T05:27:33.663Z,20.50
2022-10-21T05:30:00.210Z,18.93
2022-10-21T05:32:26.949Z,17.20
2022-10-21T05:34:53.425Z,18.50
2022-10-21T05:37:19.890Z,18.73
2022-10-21T05:39:46.587Z,20.80
2022-10-21T05:42:13.058Z,18.93
2022-10-21T05:44:39.535Z,21.27
2022-10-21T05:47:06.135Z,20.70
2022-10-21T05:49:32.723Z,21.77
2022-10-21T05:51:59.284Z,22.63
2022-10-21T05:54:25.886Z,23.70
2022-10-21T05:56:55.128Z,23.23
2022-10-21T05:59:22.709Z,23.57
2022-10-21T06:01:49.187Z,23.97
2022-10-21T06:04:15.746Z,22.33
2022-10-21T06:06:42.226Z,24.63
2022-10-21T06:09:08.999Z,23.90
2022-10-21T06:11:37.798Z,23.67
2022-10-21T06:14:04.498Z,24.13
2022-10-21T06:16:33.300Z,26.57
2022-10-21T06:18:59.984Z,28.70
2022-10-21T06:21:26.534Z,30.33
2022-10-21T06:23:53.789Z,31.30
2022-10-21T06:26:20.478Z,31.93
2022-10-21T06:28:47.102Z,30.20
2022-10-21T06:31:14.425Z,30.03
2022-10-21T06:33:40.930Z,28.63
2022-10-21T06:36:07.623Z,31.87
2022-10-21T06:38:34.315Z,30.37
2022-10-21T06:41:01.313Z,31.00
2022-10-21T06:43:27.845Z,31.33
2022-10-21T06:45:58.844Z,33.30
2022-10-21T06:48:25.438Z,33.60
2022-10-21T06:50:56.153Z,32.27
2022-10-21T06:53:22.850Z,29.33
2022-10-21T06:55:49.446Z,31.40
2022-10-21T06:58:15.964Z,31.10
2022-10-21T07:00:42.600Z,29.07
2022-10-21T07:03:09.252Z,25.17
2022-10-21T07:05:35.810Z,24.90
2022-10-21T07:08:02.830Z,23.80
2022-10-21T07:10:29.582Z,22.33
2022-10-21T07:12:56.620Z,20.37
2022-10-21T07:15:23.311Z,21.23
2022-10-21T07:17:49.800Z,21.07
2022-10-21T07:20:16.390Z,21.23
2022-10-21T07:22:43.292Z,19.73
2022-10-21T07:25:09.900Z,20.40
2022-10-21T07:27:36.692Z,19.53
2022-10-21T07:30:03.472Z,18.53
2022-10-21T07:32:30.149Z,18.57
2022-10-21T07:34:56.663Z,18.40
2022-10-21T07:37:23.241Z,17.70
2022-10-21T07:39:49.828Z,16.00
2022-10-21T07:42:16.386Z,15.27
2022-10-21T07:44:43.114Z,15.40
2022-10-21T07:47:10.068Z,15.87
2022-10-21T07:49:36.825Z,16.60
2022-10-21T07:52:03.621Z,16.67
2022-10-21T07:54:30.410Z,16.90
2022-10-21T07:56:57.040Z,16.37
2022-10-21T07:59:23.683Z,15.43
2022-10-21T08:01:50.558Z,15.63
2022-10-21T08:04:18.041Z,14.67
2022-10-21T08:06:45.124Z,14.73
2022-10-21T08:09:11.774Z,14.97
2022-10-21T08:11:40.478Z,14.20
2022-10-21T08:14:07.775Z,16.17
2022-10-21T08:16:34.342Z,14.80
2022-10-21T08:19:01.096Z,14.93
2022-10-21T08:21:28.191Z,14.87
2022-10-21T08:23:54.866Z,14.70
2022-10-21T08:26:21.478Z,14.07
2022-10-21T08:28:48.451Z,13.33
2022-10-21T08:31:15.900Z,13.67
2022-10-21T08:33:42.636Z,12.57
2022-10-21T08:36:10.081Z,13.23
2022-10-21T08:38:36.711Z,12.97
2022-10-21T08:41:06.310Z,12.57
2022-10-21T08:43:38.494Z,12.70
2022-10-21T08:46:07.984Z,12.63
2022-10-21T08:48:37.433Z,12.57
2022-10-21T08:51:04.191Z,12.47
2022-10-21T08:53:33.664Z,12.80
2022-10-21T08:56:07.183Z,11.53
2022-10-21T08:58:34.063Z,12.10
2022-10-21T09:01:27.053Z,13.00
2022-10-21T09:03:58.790Z,13.07
2022-10-21T09:06:30.365Z,13.50
2022-10-21T09:09:00.024Z,13.27
2022-10-21T09:11:29.796Z,14.73
2022-10-21T09:14:01.349Z,14.20
2022-10-21T09:16:40.760Z,13.63
2022-10-21T09:19:10.370Z,13.60
2022-10-21T09:21:39.820Z,12.90
2022-10-21T09:24:25.070Z,14.53
2022-10-21T09:26:51.802Z,13.50
2022-10-21T09:29:26.560Z,15.50
2022-10-21T09:31:58.558Z,15.77
2022-10-21T09:34:51.273Z,15.70
2022-10-21T09:37:23.180Z,16.40
2022-10-21T09:39:55.467Z,18.60
2022-10-21T09:42:42.732Z,18.17
2022-10-21T09:45:15.161Z,19.90
2022-10-21T09:47:41.723Z,19.10
2022-10-21T09:50:11.740Z,20.17
2022-10-21T09:52:38.522Z,16.73
2022-10-21T09:55:05.619Z,17.13
2022-10-21T09:57:41.259Z,16.67
2022-10-21T10:00:11.118Z,15.10
2022-10-21T10:02:41.388Z,13.93
2022-10-21T10:05:26.917Z,13.77
2022-10-21T10:07:53.449Z,12.10
2022-10-21T10:10:30.696Z,12.63
2022-10-21T10:12:58.742Z,11.40
2022-10-21T10:15:30.815Z,10.80
2022-10-21T10:17:58.102Z,10.87
2022-10-21T10:20:24.764Z,11.60
2022-10-21T10:22:58.392Z,10.73
2022-10-21T10:25:26.571Z,9.53
2022-10-21T10:27:54.127Z,10.90
2022-10-21T10:30:21.050Z,11.07
2022-10-21T10:32:47.919Z,9.87
2022-10-21T10:35:30.963Z,10.23
2022-10-21T10:37:58.822Z,9.57
2022-10-21T10:40:26.716Z,10.03
2022-10-21T10:42:55.683Z,9.80
2022-10-21T10:45:22.737Z,10.20
2022-10-21T10:47:53.860Z,10.87
2022-10-21T10:50:39.328Z,10.50
2022-10-21T10:53:26.173Z,10.07
2022-10-21T10:56:01.593Z,9.90
2022-10-21T10:58:28.893Z,10.70
2022-10-21T11:00:56.061Z,10.73
2022-10-21T11:03:26.146Z,10.33
2022-10-21T11:05:53.907Z,11.97
2022-10-21T11:08:23.529Z,11.40
2022-10-21T11:10:53.590Z,12.43
2022-10-21T11:13:20.964Z,10.37
2022-10-21T11:16:17.519Z,10.97
2022-10-21T11:18:49.944Z,11.20
2022-10-21T11:21:23.711Z,9.43
2022-10-21T11:23:59.971Z,9.23
2022-10-21T11:26:26.669Z,10.80
2022-10-21T11:29:02.315Z,10.77
2022-10-21T11:31:48.801Z,10.67
2022-10-21T11:34:36.051Z,10.77
2022-10-21T11:37:05.973Z,11.97
2022-10-21T11:39:50.452Z,11.00
2022-10-21T11:42:25.794Z,11.13
2022-10-21T11:44:57.227Z,11.33
2022-10-21T11:47:36.320Z,11.53
2022-10-21T11:50:15.617Z,13.10
2022-10-21T11:52:45.470Z,10.80
2022-10-21T11:55:30.848Z,12.07
2022-10-21T11:58:02.495Z,11.83
2022-10-21T12:00:29.039Z,11.30
2022-10-21T12:03:15.883Z,10.63
2022-10-21T12:06:02.802Z,10.43
2022-10-21T12:09:07.909Z,12.30
2022-10-21T12:11:41.705Z,11.63
2022-10-21T12:14:31.111Z,12.13
2022-10-21T12:16:59.042Z,11.57
2022-10-21T12:19:25.785Z,12.20
2022-10-21T12:21:52.247Z,12.40
2022-10-21T12:24:30.961Z,12.67
2022-10-21T12:26:57.404Z,13.67
2022-10-21T12:29:44.075Z,12.90
2022-10-21T12:32:10.466Z,12.23
2022-10-21T12:34:37.020Z,12.20
2022-10-21T12:37:03.567Z,12.80
2022-10-21T12:39:33.091Z,12.40
2022-10-21T12:42:06.106Z,12.20
2022-10-21T12:44:32.591Z,13.20
2022-10-21T12:47:03.166Z,12.53
2022-10-21T12:49:32.587Z,11.97
2022-10-21T12:52:12.001Z,13.07
2022-10-21T12:54:57.634Z,12.40
2022-10-21T12:57:29.478Z,12.27
2022-10-21T13:00:14.908Z,13.03
2022-10-21T13:03:02.830Z,12.97
2022-10-21T13:05:38.531Z,13.13
2022-10-21T13:08:20.276Z,13.10
2022-10-21T13:11:07.175Z,13.30
2022-10-21T13:13:33.725Z,12.47
2022-10-21T13:16:00.920Z,13.37
2022-10-21T13:18:46.206Z,12.43
2022-10-21T13:21:33.330Z,13.13
2022-10-21T13:24:15.030Z,12.67
2022-10-21T13:26:41.583Z,12.57
2022-10-21T13:29:13.981Z,11.73
2022-10-21T13:31:43.259Z,10.13
2022-10-21T13:34:24.074Z,11.10
2022-10-21T13:36:52.857Z,11.20
2022-10-21T13:39:22.320Z,11.33
2022-10-21T13:41:55.769Z,11.20
2022-10-21T13:44:35.354Z,11.03
2022-10-21T13:47:20.742Z,10.70
2022-10-21T13:49:53.825Z,10.50
2022-10-21T13:52:20.311Z,10.53
2022-10-21T13:54:46.892Z,9.95
2022-10-21T13:57:17.133Z,8.13
2022-10-21T13:59:43.693Z,7.60
2022-10-21T14:02:22.733Z,7.97
2022-10-21T14:04:49.224Z,7.20
2022-10-21T14:07:17.965Z,6.03
2022-10-21T14:09:44.884Z,6.10
2022-10-21T14:12:26.876Z,6.00
2022-10-21T14:14:54.130Z,5.90
2022-10-21T14:17:22.306Z,4.57
2022-10-21T14:20:07.739Z,4.23
2022-10-21T14:22:34.379Z,4.30
2022-10-21T14:25:02.472Z,4.03
2022-10-21T14:27:29.734Z,4.47
2022-10-21T14:29:56.452Z,4.10
2022-10-21T14:32:23.658Z,4.40
2022-10-21T14:35:13.378Z,4.67
2022-10-21T14:37:43.627Z,5.38
2022-10-21T14:40:11.866Z,5.63
2022-10-21T14:42:39.312Z,5.53
2022-10-21T14:45:06.266Z,5.50
2022-10-21T14:47:32.722Z,5.70
2022-10-21T14:50:02.347Z,5.93
2022-10-21T14:52:32.276Z,6.77
2022-10-21T14:55:02.863Z,6.60
2022-10-21T14:57:36.876Z,7.03
2022-10-21T15:00:03.896Z,8.00
2022-10-21T15:02:30.980Z,8.43
2022-10-21T15:05:00.931Z,7.35
2022-10-21T15:07:34.368Z,8.23
2022-10-21T15:10:03.940Z,8.02
2022-10-21T15:12:43.321Z,8.27
2022-10-21T15:15:28.508Z,8.27
2022-10-21T15:18:00.293Z,7.97
2022-10-21T15:20:31.130Z,8.73
2022-10-21T15:22:57.638Z,8.40
2022-10-21T15:25:24.275Z,8.97
2022-10-21T15:27:50.931Z,9.10
2022-10-21T15:30:20.857Z,8.50
2022-10-21T15:32:47.934Z,7.80
2022-10-21T15:35:15.509Z,7.50
2022-10-21T15:37:42.372Z,8.20
2022-10-21T15:40:09.335Z,8.65
2022-10-21T15:42:35.888Z,7.55
2022-10-21T15:45:02.407Z,7.00
2022-10-21T15:47:28.960Z,7.55
2022-10-21T15:49:56.281Z,8.47
2022-10-21T15:52:22.946Z,7.15
2022-10-21T15:54:49.444Z,7.10
2022-10-21T15:57:16.028Z,6.53
2022-10-21T15:59:42.574Z,6.70
2022-10-21T16:02:15.558Z,6.75
2022-10-21T16:04:43.812Z,7.05
2022-10-21T16:07:14.802Z,7.57
2022-10-21T16:09:41.666Z,7.43
2022-10-21T16:12:08.851Z,8.10
2022-10-21T16:14:35.346Z,7.70
2022-10-21T16:17:01.822Z,7.27
2022-10-21T16:19:28.530Z,7.55
2022-10-21T16:21:55.335Z,7.63
2022-10-21T16:24:21.807Z,9.15
2022-10-21T16:26:48.508Z,8.87
2022-10-21T16:29:19.398Z,9.18
2022-10-21T16:31:45.933Z,8.40
2022-10-21T16:34:12.691Z,9.50
2022-10-21T16:36:39.237Z,8.93
2022-10-21T16:39:10.388Z,9.73
2022-10-21T16:41:37.049Z,8.30
2022-10-21T16:44:03.614Z,9.20
2022-10-21T16:46:40.049Z,10.32
2022-10-21T16:49:12.087Z,11.63
2022-10-21T16:51:39.734Z,11.98
2022-10-21T16:54:06.218Z,11.38
2022-10-21T16:56:32.705Z,11.40
2022-10-21T16:58:59.388Z,9.30
2022-10-21T17:01:26.140Z,8.07
2022-10-21T17:03:52.700Z,7.25
2022-10-21T17:06:22.168Z,7.95
2022-10-21T17:08:49.135Z,8.40
2022-10-21T17:11:19.754Z,7.70
2022-10-21T17:13:46.322Z,7.95
2022-10-21T17:16:13.398Z,8.05
2022-10-21T17:18:40.049Z,8.93
2022-10-21T17:21:09.332Z,8.13
2022-10-21T17:23:35.871Z,7.25
2022-10-21T17:26:02.537Z,8.20
2022-10-21T17:28:29.230Z,8.73
2022-10-21T17:30:56.990Z,8.40
2022-10-21T17:33:23.762Z,7.38
2022-10-21T17:35:50.286Z,7.93
2022-10-21T17:38:17.152Z,7.20
2022-10-21T17:40:43.903Z,7.40
2022-10-21T17:43:10.572Z,7.57
2022-10-21T17:45:37.473Z,7.50
2022-10-21T17:48:04.078Z,7.90
2022-10-21T17:50:31.999Z,7.30
2022-10-21T17:52:59.644Z,8.57
2022-10-21T17:55:27.302Z,8.50
2022-10-21T17:57:53.831Z,9.95
2022-10-21T18:00:20.421Z,8.45
2022-10-21T18:02:46.930Z,8.13
2022-10-21T18:05:13.441Z,8.30
2022-10-21T18:07:40.284Z,6.63
2022-10-21T18:10:07.218Z,7.27
2022-10-21T18:12:35.520Z,7.47
2022-10-21T18:15:02.126Z,7.13
2022-10-21T18:17:28.660Z,6.43
2022-10-21T18:19:55.114Z,6.68
2022-10-21T18:22:21.625Z,6.93
2022-10-21T18:24:48.218Z,7.60
2022-10-21T18:27:14.860Z,7.10
2022-10-21T18:29:41.490Z,7.00
2022-10-21T18:32:12.588Z,7.93
2022-10-21T18:34:42.546Z,8.60
2022-10-21T18:37:09.062Z,8.07
2022-10-21T18:39:35.538Z,8.38
2022-10-21T18:42:02.214Z,9.77
2022-10-21T18:44:30.526Z,9.10
2022-10-21T18:46:57.101Z,10.02
2022-10-21T18:49:23.605Z,9.50
2022-10-21T18:51:50.084Z,10.67
2022-10-21T18:54:16.845Z,10.20
2022-10-21T18:56:45.040Z,9.50
2022-10-21T18:59:12.452Z,10.50
2022-10-21T19:01:40.148Z,9.37
2022-10-21T19:04:07.071Z,10.57
2022-10-21T19:06:40.062Z,9.90
2022-10-21T19:09:08.398Z,10.52
2022-10-21T19:11:34.977Z,10.50
2022-10-21T19:14:01.510Z,11.20
2022-10-21T19:16:27.987Z,11.98
2022-10-21T19:18:55.280Z,10.80
2022-10-21T19:21:21.796Z,11.90
2022-10-21T19:23:48.331Z,11.10
2022-10-21T19:26:16.856Z,10.77
2022-10-21T19:28:44.311Z,10.38
2022-10-21T19:31:13.750Z,10.77
2022-10-21T19:33:40.399Z,10.10
2022-10-21T19:36:07.214Z,9.10
2022-10-21T19:38:44.378Z,9.97
2022-10-21T19:41:12.290Z,9.97
2022-10-21T19:43:38.924Z,9.17
2022-10-21T19:46:05.856Z,8.85
2022-10-21T19:48:32.675Z,9.52
2022-10-21T19:50:59.867Z,9.52
2022-10-21T19:53:27.922Z,10.60
2022-10-21T19:55:54.908Z,12.25
2022-10-21T19:58:21.584Z,12.70
2022-10-21T20:00:48.121Z,13.60
2022-10-21T20:03:17.552Z,13.57
2022-10-21T20:05:44.218Z,12.03
2022-10-21T20:08:10.744Z,13.30
2022-10-21T20:10:37.228Z,13.43
2022-10-21T20:13:03.884Z,13.30
2022-10-21T20:15:30.418Z,12.00
2022-10-21T20:17:57.124Z,12.23
2022-10-21T20:20:23.868Z,12.80
2022-10-21T20:22:50.507Z,12.35
2022-10-21T20:25:16.995Z,11.30
2022-10-21T20:27:46.685Z,12.20
2022-10-21T20:30:13.490Z,12.13
2022-10-21T20:32:39.944Z,12.57
2022-10-21T20:35:08.677Z,11.98
2022-10-21T20:37:38.072Z,12.60
2022-10-21T20:40:05.191Z,11.43
2022-10-21T20:42:31.653Z,11.57
2022-10-21T20:44:58.174Z,11.43
2022-10-21T20:47:27.538Z,12.77
2022-10-21T20:49:56.719Z,11.70
2022-10-21T20:52:23.422Z,11.93
2022-10-21T20:54:51.473Z,12.83
2022-10-21T20:57:17.931Z,12.88
2022-10-21T20:59:44.399Z,11.30
2022-10-21T21:02:10.871Z,11.53
2022-10-21T21:04:37.332Z,11.20
2022-10-21T21:07:03.784Z,10.37
2022-10-21T21:09:50.576Z,11.37
2022-10-21T21:12:16.897Z,11.23
2022-10-21T21:14:43.371Z,10.20
2022-10-21T21:17:09.849Z,8.47
2022-10-21T21:19:36.381Z,9.82
2022-10-21T21:22:03.948Z,9.50
2022-10-21T21:24:30.684Z,8.80
2022-10-21T21:26:57.607Z,8.97
2022-10-21T21:29:24.118Z,8.57
2022-10-21T21:31:50.660Z,9.00
2022-10-21T21:34:17.393Z,8.77
2022-10-21T21:36:43.803Z,8.40
2022-10-21T21:39:11.233Z,7.75
2022-10-21T21:41:37.796Z,8.10
2022-10-21T21:44:04.455Z,8.17
2022-10-21T21:46:30.987Z,8.23
2022-10-21T21:49:02.252Z,8.20
2022-10-21T21:51:30.704Z,7.43
2022-10-21T21:53:57.622Z,8.00
2022-10-21T21:56:24.301Z,7.83
2022-10-21T21:58:51.247Z,8.73
2022-10-21T22:01:18.637Z,8.97
2022-10-21T22:03:47.255Z,8.20
2022-10-21T22:06:13.877Z,8.10
2022-10-21T22:08:40.992Z,7.90
2022-10-21T22:11:14.299Z,7.53
2022-10-21T22:13:41.181Z,7.70
2022-10-21T22:16:08.260Z,7.57
2022-10-21T22:18:35.070Z,8.07
2022-10-21T22:21:02.116Z,7.70
2022-10-21T22:23:28.649Z,7.80
2022-10-21T22:25:55.149Z,7.60
2022-10-21T22:28:21.649Z,7.13
2022-10-21T22:30:58.644Z,7.20
2022-10-21T22:33:25.593Z,7.30
2022-10-21T22:35:52.106Z,7.83
2022-10-21T22:38:18.605Z,8.07
2022-10-21T22:40:45.074Z,7.83
2022-10-21T22:43:11.551Z,7.57
2022-10-21T22:45:37.960Z,7.70
2022-10-21T22:48:04.534Z,6.90
2022-10-21T22:50:31.053Z,6.70
2022-10-21T22:52:57.565Z,7.60
2022-10-21T22:55:23.989Z,7.67
2022-10-21T22:57:50.436Z,7.10
2022-10-21T23:00:16.944Z,7.10
2022-10-21T23:02:43.483Z,8.02
2022-10-21T23:05:10.032Z,7.00
2022-10-21T23:07:36.653Z,7.00
2022-10-21T23:10:03.646Z,7.63
2022-10-21T23:12:30.134Z,7.30
2022-10-21T23:14:56.666Z,8.03
2022-10-21T23:17:23.149Z,8.60
2022-10-21T23:19:49.645Z,8.40
2022-10-21T23:22:16.114Z,9.33
2022-10-21T23:24:42.631Z,9.13
2022-10-21T23:27:09.191Z,8.10
2022-10-21T23:29:35.781Z,6.67
2022-10-21T23:32:02.371Z,7.33
2022-10-21T23:34:28.994Z,7.23
2022-10-21T23:36:55.609Z,7.03
2022-10-21T23:39:22.072Z,7.20
2022-10-21T23:41:48.663Z,7.15
2022-10-21T23:44:15.251Z,6.37
2022-10-21T23:46:41.708Z,6.77
2022-10-21T23:49:08.365Z,6.90
2022-10-21T23:51:37.159Z,7.00
2022-10-21T23:54:03.937Z,6.13
2022-10-21T23:56:32.373Z,6.60
2022-10-21T23:59:01.159Z,6.80
